CDG weather

Charles de Gaulle International Airport
Paris, Île-de-France, France

Public forecast

Using degrees Celsius for public forecast. Weather courtesy of forecast.io.

METAR (pilot weather report)

Retrieved 2018/07/17 00:30 UTC (19 minutes ago):

LFPG 170030Z VRB01KT CAVOK 20/09 Q1015 NOSIG

TAF (pilot weather forecast)

Forecast is more than 12 hours old.

Retrieved 2018/07/16 00:21 UTC (1 day ago):

TAF LFPG 162300Z 1700/1806 33007KT CAVOK TX26/1715Z TN18/1703Z